Time;durP1;ratioP1;P1;durP2;ratioP2;P2;SDS_P1;SDS_P2;PMS_P1;PMS_P2;Temp;Humidity;BMP_temperature;BMP_pressure;BME280_temperature;BME280_humidity;BME280_pressure;Samples;Min_cycle;Max_cycle;Signal;HPM_P1;HPM_P2
2022/05/15 00:02:04;;;;;;;24.27;6.93;;;6.60;99.90;;;;;;5036415;28;20036;-72
2022/05/15 00:04:30;;;;;;;21.73;7.30;;;6.60;99.90;;;;;;5035955;28;20029;-72
2022/05/15 00:06:55;;;;;;;14.25;6.05;;;6.60;99.90;;;;;;5035901;28;20073;-72
2022/05/15 00:09:21;;;;;;;16.48;5.88;;;6.60;99.90;;;;;;5046687;28;20032;-73
2022/05/15 00:11:47;;;;;;;20.45;6.97;;;6.50;99.90;;;;;;5056153;28;20021;-72
2022/05/15 00:14:13;;;;;;;25.27;7.18;;;6.50;99.90;;;;;;5055595;28;20479;-73
2022/05/15 00:16:38;;;;;;;25.98;7.18;;;6.40;99.90;;;;;;5055075;28;20056;-72
2022/05/15 00:19:04;;;;;;;28.08;5.80;;;6.40;99.90;;;;;;5055455;28;20021;-72
2022/05/15 00:21:30;;;;;;;17.45;5.05;;;6.30;99.90;;;;;;5055648;28;20024;-72
2022/05/15 00:23:55;;;;;;;29.58;5.65;;;6.30;99.90;;;;;;5054151;28;20560;-72
2022/05/15 00:26:21;;;;;;;21.20;5.95;;;6.20;99.90;;;;;;5055656;28;20025;-72
2022/05/15 00:28:46;;;;;;;34.97;8.13;;;6.20;99.90;;;;;;5054960;28;20021;-72
2022/05/15 00:31:12;;;;;;;36.17;8.02;;;6.20;99.90;;;;;;5055629;28;20036;-72
2022/05/15 00:33:38;;;;;;;26.13;8.82;;;6.20;99.90;;;;;;5055307;28;20021;-72
2022/05/15 00:36:04;;;;;;;23.23;6.53;;;6.30;99.90;;;;;;5055203;28;20029;-72
2022/05/15 00:38:30;;;;;;;24.08;6.70;;;6.30;99.90;;;;;;5055312;28;20013;-73
2022/05/15 00:40:56;;;;;;;16.80;4.88;;;6.30;99.90;;;;;;5053363;28;20025;-72
2022/05/15 00:43:48;;;;;;;11.85;5.43;;;6.20;99.90;;;;;;5054659;28;20025;-72
2022/05/15 00:46:28;;;;;;;16.02;5.28;;;6.20;99.90;;;;;;5054872;28;20480;-72
2022/05/15 00:48:54;;;;;;;22.80;5.45;;;6.10;99.90;;;;;;5055044;28;20029;-72
2022/05/15 00:51:28;;;;;;;10.85;4.85;;;6.10;99.90;;;;;;5054625;28;20033;-72
2022/05/15 00:54:03;;;;;;;14.50;5.43;;;6.00;99.90;;;;;;5054905;28;20540;-72
2022/05/15 00:56:33;;;;;;;11.02;5.45;;;5.90;99.90;;;;;;5055412;28;20033;-72
2022/05/15 00:59:06;;;;;;;15.35;6.60;;;5.90;99.90;;;;;;5054823;28;20072;-72
2022/05/15 01:01:31;;;;;;;19.13;5.50;;;5.80;99.90;;;;;;5049972;28;20044;-72
2022/05/15 01:03:57;;;;;;;16.70;5.88;;;5.80;99.90;;;;;;5033283;28;20091;-72
2022/05/15 01:06:22;;;;;;;15.13;6.90;;;5.80;99.90;;;;;;5034402;28;20026;-72
2022/05/15 01:08:48;;;;;;;18.30;6.13;;;5.70;99.90;;;;;;5034559;28;20030;-72
2022/05/15 01:11:18;;;;;;;15.23;6.45;;;5.70;99.90;;;;;;5034629;28;20021;-72
2022/05/15 01:13:45;;;;;;;25.90;6.00;;;5.70;99.90;;;;;;5033964;28;20017;-72
2022/05/15 01:16:13;;;;;;;17.92;7.07;;;5.70;99.90;;;;;;5034855;28;20029;-72
2022/05/15 01:18:39;;;;;;;24.45;6.45;;;5.70;99.90;;;;;;5034474;28;20088;-72
2022/05/15 01:21:28;;;;;;;23.50;6.22;;;5.60;99.90;;;;;;5034374;28;20022;-72
2022/05/15 01:23:54;;;;;;;19.23;6.15;;;5.60;99.90;;;;;;5034036;28;20045;-72
2022/05/15 01:26:20;;;;;;;17.88;7.03;;;5.50;99.90;;;;;;5034363;28;20428;-72
2022/05/15 01:28:46;;;;;;;20.85;7.13;;;5.40;99.90;;;;;;5034310;28;20021;-72
2022/05/15 01:31:13;;;;;;;17.40;5.97;;;5.40;99.90;;;;;;5034487;28;20026;-72
2022/05/15 01:33:39;;;;;;;16.45;6.57;;;5.40;99.90;;;;;;5034266;28;20029;-72
2022/05/15 01:36:06;;;;;;;17.27;5.95;;;5.40;99.90;;;;;;5033690;28;20021;-72
2022/05/15 01:38:32;;;;;;;11.68;4.55;;;5.50;99.90;;;;;;5041788;28;20366;-72
2022/05/15 01:40:58;;;;;;;8.52;4.32;;;5.50;99.90;;;;;;5054290;28;20028;-72
2022/05/15 01:43:23;;;;;;;13.27;5.10;;;5.50;99.90;;;;;;5052605;28;20021;-72
2022/05/15 01:45:49;;;;;;;15.63;5.63;;;5.50;99.90;;;;;;5053677;28;20029;-72
2022/05/15 01:48:14;;;;;;;18.33;6.13;;;5.40;99.90;;;;;;5053865;28;20029;-72
2022/05/15 01:50:40;;;;;;;9.80;5.22;;;5.40;99.90;;;;;;5054382;28;20032;-72
2022/05/15 01:53:06;;;;;;;17.15;5.50;;;5.30;99.90;;;;;;5053958;28;20079;-72
2022/05/15 01:55:32;;;;;;;16.10;6.15;;;5.30;99.90;;;;;;5053325;28;20361;-72
2022/05/15 01:57:57;;;;;;;20.42;7.68;;;5.20;99.90;;;;;;5053819;28;20473;-72
2022/05/15 02:00:25;;;;;;;16.63;5.95;;;5.20;99.90;;;;;;5053520;28;20468;-72
2022/05/15 02:02:50;;;;;;;19.27;7.10;;;5.20;99.90;;;;;;5052430;28;20025;-72
2022/05/15 02:05:18;;;;;;;20.23;5.75;;;5.10;99.90;;;;;;5051139;28;20439;-72
2022/05/15 02:07:43;;;;;;;15.80;5.70;;;5.10;99.90;;;;;;5034193;28;20053;-72
2022/05/15 02:10:10;;;;;;;14.55;5.03;;;5.00;99.90;;;;;;5033814;28;20465;-72
2022/05/15 02:12:36;;;;;;;19.58;5.55;;;4.90;99.90;;;;;;5033600;28;20504;-72
2022/05/15 02:15:03;;;;;;;12.10;5.45;;;4.90;99.90;;;;;;5036300;28;20185;-72
2022/05/15 02:17:29;;;;;;;14.93;6.10;;;4.90;99.90;;;;;;5040328;28;20028;-72
2022/05/15 02:19:55;;;;;;;55.60;20.92;;;4.90;99.90;;;;;;5057971;28;20020;-72
2022/05/15 02:22:21;;;;;;;66.78;22.98;;;4.90;99.90;;;;;;5058916;28;20021;-72
2022/05/15 02:24:46;;;;;;;54.55;19.55;;;4.90;99.90;;;;;;5059403;28;20392;-72
2022/05/15 02:27:12;;;;;;;31.80;13.60;;;4.90;99.90;;;;;;5053263;28;20075;-72
2022/05/15 02:29:38;;;;;;;24.38;12.27;;;5.00;99.90;;;;;;5044091;28;20060;-72
2022/05/15 02:32:04;;;;;;;24.65;11.35;;;5.00;99.90;;;;;;5057422;28;20071;-72
2022/05/15 02:34:30;;;;;;;15.93;9.20;;;5.00;99.90;;;;;;5055579;28;20032;-72
2022/05/15 02:36:56;;;;;;;20.67;9.32;;;4.90;99.90;;;;;;5057511;28;20028;-72
2022/05/15 02:39:21;;;;;;;17.17;8.75;;;4.90;99.90;;;;;;5057289;28;20021;-72
2022/05/15 02:41:50;;;;;;;14.05;7.47;;;4.90;99.90;;;;;;5052800;28;20074;-72
2022/05/15 02:44:15;;;;;;;12.77;7.72;;;4.90;99.90;;;;;;5035646;28;20029;-72
2022/05/15 02:46:41;;;;;;;11.52;6.75;;;4.90;99.90;;;;;;5037624;28;20033;-72
2022/05/15 02:51:50;;;;;;;8.43;5.45;;;4.80;99.90;;;;;;5037355;28;20477;-72
2022/05/15 02:54:16;;;;;;;8.27;5.07;;;4.90;99.90;;;;;;5041155;28;20021;-72
2022/05/15 02:56:41;;;;;;;9.18;4.50;;;4.80;99.90;;;;;;5057176;28;20437;-72
2022/05/15 02:59:07;;;;;;;10.50;4.40;;;4.80;99.90;;;;;;5057055;28;20049;-72
2022/05/15 03:01:34;;;;;;;5.15;4.28;;;4.70;99.90;;;;;;5057003;28;20017;-72
2022/05/15 03:04:00;;;;;;;6.43;5.03;;;4.70;99.90;;;;;;5056483;28;20416;-72
2022/05/15 03:06:25;;;;;;;5.65;4.80;;;4.70;99.90;;;;;;5056961;28;20075;-72
2022/05/15 03:08:52;;;;;;;7.10;5.70;;;4.70;99.90;;;;;;5056976;28;20033;-72
2022/05/15 03:11:18;;;;;;;6.10;5.28;;;4.80;99.90;;;;;;5056377;28;20411;-72
2022/05/15 03:13:45;;;;;;;6.97;5.72;;;4.70;99.90;;;;;;5056735;28;20021;-72
2022/05/15 03:16:13;;;;;;;8.18;6.28;;;4.80;99.90;;;;;;5056703;28;20025;-72
2022/05/15 03:18:44;;;;;;;8.27;5.80;;;4.80;99.90;;;;;;5056684;28;20063;-72
2022/05/15 03:21:13;;;;;;;27.75;10.10;;;4.80;99.90;;;;;;5056727;28;20036;-72
2022/05/15 03:23:38;;;;;;;91.35;26.20;;;4.80;99.90;;;;;;5056543;28;20020;-72
2022/05/15 03:26:04;;;;;;;179.73;47.00;;;4.80;99.90;;;;;;5056066;28;20025;-72
2022/05/15 03:28:30;;;;;;;184.43;50.58;;;4.80;99.90;;;;;;5056507;28;20028;-72
2022/05/15 03:30:55;;;;;;;155.20;42.47;;;4.90;99.90;;;;;;5056870;28;20029;-72
2022/05/15 03:33:21;;;;;;;76.90;19.52;;;5.00;99.90;;;;;;5056448;28;20147;-72
2022/05/15 03:35:46;;;;;;;39.40;14.90;;;5.10;99.90;;;;;;5056244;28;20025;-72
2022/05/15 03:38:12;;;;;;;20.63;10.65;;;5.30;99.90;;;;;;5055929;28;20029;-72
2022/05/15 03:40:38;;;;;;;19.08;9.48;;;5.50;99.90;;;;;;5056336;28;20091;-72
2022/05/15 03:43:04;;;;;;;21.77;9.88;;;5.70;99.90;;;;;;5056211;28;20052;-72
2022/05/15 03:45:29;;;;;;;20.50;9.75;;;5.80;99.90;;;;;;5055759;28;20021;-72
2022/05/15 03:47:55;;;;;;;18.73;9.73;;;5.90;99.90;;;;;;5056215;28;20387;-72
2022/05/15 03:50:23;;;;;;;36.15;13.32;;;5.90;99.90;;;;;;5040239;28;20072;-72
2022/05/15 03:52:49;;;;;;;68.07;30.02;;;6.00;99.90;;;;;;5036625;28;20025;-72
2022/05/15 03:55:15;;;;;;;86.93;33.65;;;6.00;99.90;;;;;;5035600;28;20453;-72
2022/05/15 03:57:42;;;;;;;47.80;21.40;;;6.10;99.90;;;;;;5036038;28;20029;-72
2022/05/15 04:00:12;;;;;;;34.97;15.00;;;6.20;99.90;;;;;;5035910;28;20033;-72
2022/05/15 04:02:38;;;;;;;22.35;10.82;;;6.20;99.90;;;;;;5052949;28;20123;-73
2022/05/15 04:05:05;;;;;;;25.13;11.43;;;6.40;99.90;;;;;;5056168;28;20376;-73
2022/05/15 04:07:31;;;;;;;18.63;9.93;;;6.50;99.90;;;;;;5057394;28;20029;-72
2022/05/15 04:09:56;;;;;;;33.25;13.43;;;6.50;99.90;;;;;;5055573;28;20036;-72
2022/05/15 04:12:22;;;;;;;19.65;10.95;;;6.60;99.90;;;;;;5055701;28;20028;-72
2022/05/15 04:14:48;;;;;;;25.83;11.98;;;6.60;99.90;;;;;;5055501;28;20033;-72
2022/05/15 04:17:14;;;;;;;29.25;12.18;;;6.70;99.90;;;;;;5055666;28;20021;-72
2022/05/15 04:19:39;;;;;;;23.92;12.18;;;6.80;99.90;;;;;;5054548;28;20063;-72
2022/05/15 04:22:05;;;;;;;29.95;11.73;;;6.90;99.90;;;;;;5055399;28;20060;-72
2022/05/15 04:24:33;;;;;;;25.98;12.23;;;7.00;99.90;;;;;;5055424;28;20037;-72
2022/05/15 04:27:00;;;;;;;26.73;11.57;;;7.10;99.90;;;;;;5055015;28;20504;-72
2022/05/15 04:29:25;;;;;;;21.80;10.60;;;7.20;99.90;;;;;;5054692;28;20029;-72
2022/05/15 04:31:56;;;;;;;30.25;11.82;;;7.40;99.90;;;;;;5052868;28;20040;-71
2022/05/15 04:34:23;;;;;;;33.55;12.48;;;7.50;99.90;;;;;;5050909;28;20109;-72
2022/05/15 04:36:49;;;;;;;26.38;11.20;;;7.60;99.90;;;;;;5053806;28;20389;-72
2022/05/15 04:39:15;;;;;;;20.25;11.80;;;7.70;99.90;;;;;;5055320;28;20055;-72
2022/05/15 04:41:41;;;;;;;21.55;11.40;;;7.80;99.90;;;;;;5054983;28;20033;-72
2022/05/15 04:44:07;;;;;;;21.35;11.07;;;7.90;99.90;;;;;;5054208;28;20158;-72
2022/05/15 04:46:34;;;;;;;21.42;12.15;;;8.10;99.90;;;;;;5056560;28;20484;-73
2022/05/15 04:49:00;;;;;;;30.17;12.57;;;8.30;99.90;;;;;;5055347;28;20025;-73
2022/05/15 04:51:27;;;;;;;21.25;11.48;;;8.40;99.90;;;;;;5056045;28;20033;-73
2022/05/15 04:53:53;;;;;;;29.10;12.70;;;8.50;99.90;;;;;;5054303;28;20028;-73
2022/05/15 04:56:19;;;;;;;24.13;12.52;;;8.60;99.90;;;;;;5054971;28;20025;-73
2022/05/15 04:58:48;;;;;;;27.88;11.82;;;8.80;99.90;;;;;;5055647;28;20047;-73
2022/05/15 05:01:13;;;;;;;29.23;13.85;;;8.90;99.90;;;;;;5054718;28;20029;-73
2022/05/15 05:03:39;;;;;;;33.53;13.40;;;9.00;99.90;;;;;;5053028;28;20044;-72
2022/05/15 05:06:05;;;;;;;31.52;13.65;;;9.10;99.90;;;;;;5054250;28;20044;-72
2022/05/15 05:08:31;;;;;;;28.42;13.38;;;9.20;99.90;;;;;;5054610;28;20369;-72
2022/05/15 05:10:56;;;;;;;27.17;13.73;;;9.30;99.90;;;;;;5054651;28;20112;-73
2022/05/15 05:13:22;;;;;;;34.85;13.60;;;9.40;99.90;;;;;;5053526;28;20064;-72
2022/05/15 05:15:47;;;;;;;33.50;15.45;;;9.50;99.90;;;;;;5053934;28;20032;-73
2022/05/15 05:18:15;;;;;;;39.53;15.13;;;9.60;99.90;;;;;;5054483;28;20048;-72
2022/05/15 05:20:41;;;;;;;32.03;15.20;;;9.70;99.90;;;;;;5054473;28;20089;-72
2022/05/15 05:23:06;;;;;;;31.38;14.65;;;9.90;99.90;;;;;;5052742;28;20457;-73
2022/05/15 05:25:32;;;;;;;64.05;16.45;;;10.00;99.90;;;;;;5053845;28;20413;-72
2022/05/15 05:27:58;;;;;;;51.72;15.88;;;10.10;99.90;;;;;;5053680;28;20037;-72
2022/05/15 05:30:25;;;;;;;43.63;14.48;;;10.30;99.90;;;;;;5054189;28;20100;-73
2022/05/15 05:32:50;;;;;;;48.00;15.38;;;10.40;99.90;;;;;;5053725;28;20081;-72
2022/05/15 05:35:18;;;;;;;53.25;17.33;;;10.50;99.90;;;;;;5052968;28;20035;-73
2022/05/15 05:37:44;;;;;;;35.53;13.85;;;10.60;99.90;;;;;;5054109;28;20531;-73
2022/05/15 05:40:10;;;;;;;36.03;14.65;;;10.70;99.90;;;;;;5053633;28;20104;-73
2022/05/15 05:42:36;;;;;;;39.53;14.82;;;10.70;99.90;;;;;;5053389;28;20100;-72
2022/05/15 05:45:03;;;;;;;54.20;15.00;;;10.90;99.90;;;;;;5054518;28;20151;-73
2022/05/15 05:47:30;;;;;;;44.60;14.85;;;11.10;99.90;;;;;;5053890;28;20029;-73
2022/05/15 05:49:56;;;;;;;37.03;13.23;;;11.00;99.90;;;;;;5052468;28;20052;-73
2022/05/15 05:52:23;;;;;;;41.47;13.98;;;11.10;99.90;;;;;;5053497;28;20053;-73
2022/05/15 05:54:49;;;;;;;37.05;13.35;;;11.10;99.90;;;;;;5054161;28;20127;-73
2022/05/15 05:57:15;;;;;;;47.80;15.45;;;11.20;99.90;;;;;;5053913;28;20041;-73
2022/05/15 05:59:41;;;;;;;44.58;14.95;;;11.30;99.90;;;;;;5066709;22;20148;-67
2022/05/15 06:02:08;;;;;;;42.70;14.68;;;11.20;99.90;;;;;;5033404;28;20034;-67
2022/05/15 06:04:41;;;;;;;41.60;12.65;;;11.30;99.90;;;;;;5033761;28;20044;-67
2022/05/15 06:07:10;;;;;;;42.35;12.32;;;11.40;99.90;;;;;;5033473;28;20076;-67
2022/05/15 06:09:38;;;;;;;43.13;12.73;;;11.40;99.90;;;;;;5039610;28;20556;-67
2022/05/15 06:12:05;;;;;;;33.17;12.85;;;11.50;99.90;;;;;;5053493;28;20041;-67
2022/05/15 06:14:30;;;;;;;41.53;10.82;;;11.60;99.90;;;;;;5052752;28;20037;-67
2022/05/15 06:16:56;;;;;;;38.22;11.68;;;11.60;99.90;;;;;;5053410;28;20044;-68
2022/05/15 06:19:22;;;;;;;34.83;9.52;;;11.60;99.90;;;;;;5053040;28;20026;-67
2022/05/15 06:21:48;;;;;;;37.38;9.43;;;11.60;99.90;;;;;;5052520;28;20032;-67
2022/05/15 06:24:13;;;;;;;33.83;10.93;;;11.70;99.90;;;;;;5052596;28;20041;-67
2022/05/15 06:26:39;;;;;;;42.45;10.23;;;11.80;99.90;;;;;;5053313;28;20032;-67
2022/05/15 06:29:04;;;;;;;40.42;10.73;;;12.00;99.90;;;;;;5053250;28;20029;-67
2022/05/15 06:31:30;;;;;;;50.13;10.82;;;12.20;99.90;;;;;;5052249;28;20052;-67
2022/05/15 06:33:55;;;;;;;42.05;9.65;;;12.20;99.90;;;;;;5053143;28;20084;-67
2022/05/15 06:36:21;;;;;;;37.13;9.10;;;12.30;99.90;;;;;;5053055;28;20025;-67
2022/05/15 06:38:46;;;;;;;38.45;9.45;;;12.20;99.90;;;;;;5052405;28;20025;-67
2022/05/15 06:41:12;;;;;;;32.78;8.35;;;12.20;99.90;;;;;;5052028;28;20105;-67
2022/05/15 06:43:38;;;;;;;39.53;9.35;;;12.10;99.90;;;;;;5053230;28;20108;-67
2022/05/15 06:46:03;;;;;;;33.95;8.07;;;12.10;99.90;;;;;;5052866;28;20432;-67
2022/05/15 06:48:29;;;;;;;40.95;9.38;;;12.20;99.90;;;;;;5052465;28;20037;-67
2022/05/15 06:50:55;;;;;;;34.20;12.20;;;12.50;99.90;;;;;;5051789;28;20439;-67
2022/05/15 06:53:20;;;;;;;40.00;7.65;;;12.80;99.90;;;;;;5053047;28;20059;-68
2022/05/15 06:58:30;;;;;;;;;;;13.20;99.90;;;;;;5053800;28;20126;-67
2022/05/15 07:00:56;;;;;;;34.08;9.55;;;13.30;99.90;;;;;;5053832;28;19951;-67
2022/05/15 07:03:21;;;;;;;34.13;8.10;;;13.50;99.90;;;;;;5055790;28;20029;-67
2022/05/15 07:05:47;;;;;;;38.58;8.88;;;13.50;99.90;;;;;;5055907;28;20029;-67
2022/05/15 07:08:15;;;;;;;32.00;7.90;;;13.30;99.90;;;;;;5056674;28;20029;-66
2022/05/15 07:10:41;;;;;;;35.50;9.77;;;13.10;99.90;;;;;;5054396;28;20033;-68
2022/05/15 07:13:07;;;;;;;31.08;8.18;;;13.10;99.90;;;;;;5054237;28;20021;-66
2022/05/15 07:15:33;;;;;;;20.13;6.47;;;13.20;99.90;;;;;;5056214;28;20136;-67
2022/05/15 07:17:59;;;;;;;41.22;7.70;;;13.40;99.90;;;;;;5056284;28;20021;-67
2022/05/15 07:20:24;;;;;;;36.55;8.25;;;13.60;99.90;;;;;;5053837;28;20578;-67
2022/05/15 07:22:50;;;;;;;34.22;8.10;;;13.80;99.90;;;;;;5053293;28;20112;-67
2022/05/15 07:25:16;;;;;;;35.78;8.75;;;13.70;99.90;;;;;;5054469;28;20037;-67
2022/05/15 07:27:41;;;;;;;41.53;8.38;;;13.70;99.90;;;;;;5056330;28;20029;-67
2022/05/15 07:30:08;;;;;;;32.05;7.30;;;13.50;99.90;;;;;;5054358;28;20029;-67
2022/05/15 07:32:33;;;;;;;25.50;7.05;;;13.50;99.90;;;;;;5053778;28;20168;-68
2022/05/15 07:34:59;;;;;;;33.97;8.30;;;13.50;99.90;;;;;;5054876;28;20123;-67
2022/05/15 07:37:25;;;;;;;31.85;8.88;;;13.60;99.90;;;;;;5055878;28;20044;-67
2022/05/15 07:39:50;;;;;;;31.67;8.75;;;13.80;99.90;;;;;;5055010;28;20162;-67
2022/05/15 07:42:16;;;;;;;42.45;7.80;;;13.80;99.90;;;;;;5055780;28;20031;-67
2022/05/15 07:44:42;;;;;;;30.67;7.15;;;13.80;99.90;;;;;;5055615;28;20025;-67
2022/05/15 07:47:08;;;;;;;27.45;6.10;;;13.70;99.90;;;;;;5055318;28;20047;-68
2022/05/15 07:49:35;;;;;;;34.47;6.25;;;13.60;99.90;;;;;;5052748;28;20029;-68
2022/05/15 07:52:01;;;;;;;49.05;9.57;;;13.50;99.90;;;;;;5055640;28;20029;-68
2022/05/15 07:54:27;;;;;;;30.00;7.93;;;13.60;99.90;;;;;;5055529;28;20029;-68
2022/05/15 07:56:52;;;;;;;28.77;6.22;;;13.90;99.90;;;;;;5053533;28;20430;-68
2022/05/15 07:59:18;;;;;;;27.33;7.13;;;14.40;99.90;;;;;;5054740;28;20103;-67
2022/05/15 08:01:44;;;;;;;32.20;7.25;;;14.70;99.90;;;;;;5053332;28;20384;-68
2022/05/15 08:04:10;;;;;;;28.85;7.72;;;15.10;99.90;;;;;;5055433;28;20393;-68
2022/05/15 08:09:20;;;;;;;32.47;6.72;;;15.50;99.90;;;;;;5054230;28;20447;-68
2022/05/15 08:11:46;;;;;;;31.80;6.93;;;15.40;99.90;;;;;;5049787;28;20060;-68
2022/05/15 08:14:12;;;;;;;35.58;8.10;;;15.30;99.90;;;;;;5055156;28;20056;-68
2022/05/15 08:16:38;;;;;;;26.52;7.63;;;15.00;99.90;;;;;;5055430;28;20047;-68
2022/05/15 08:24:34;;;;;;;23.58;7.53;;;14.90;99.90;;;;;;5055586;28;20036;-68
2022/05/15 08:27:00;;;;;;;35.90;8.25;;;15.30;99.90;;;;;;5053926;28;20139;-68
2022/05/15 08:29:26;;;;;;;34.92;7.10;;;15.80;99.90;;;;;;5054715;28;20111;-68
2022/05/15 08:31:51;;;;;;;41.25;7.88;;;16.50;99.90;;;;;;5055145;28;20028;-68
2022/05/15 08:34:17;;;;;;;27.40;7.32;;;17.20;99.90;;;;;;5054965;28;20029;-68
2022/05/15 08:36:44;;;;;;;22.13;5.85;;;17.40;99.90;;;;;;5054585;28;20097;-68
2022/05/15 08:39:11;;;;;;;32.55;7.38;;;18.00;99.90;;;;;;5054145;28;20366;-68
2022/05/15 08:41:45;;;;;;;27.85;6.95;;;18.30;99.90;;;;;;5055008;28;20029;-68
2022/05/15 08:44:32;;;;;;;34.88;6.88;;;18.00;99.90;;;;;;5053651;28;20477;-68
2022/05/15 08:47:19;;;;;;;31.55;6.97;;;17.90;99.90;;;;;;5054574;28;20488;-68
2022/05/15 08:49:53;;;;;;;19.52;6.18;;;17.80;99.90;;;;;;5054514;28;20017;-68
2022/05/15 08:52:25;;;;;;;30.00;6.47;;;17.40;99.90;;;;;;5053641;28;20029;-68
2022/05/15 08:55:09;;;;;;;29.80;7.43;;;16.70;99.90;;;;;;5054382;28;20048;-68
2022/05/15 08:57:34;;;;;;;26.25;6.47;;;16.30;99.90;;;;;;5054508;28;20021;-68
2022/05/15 09:00:01;;;;;;;26.80;6.30;;;16.30;99.90;;;;;;5053546;28;20058;-69
2022/05/15 09:02:27;;;;;;;30.63;6.38;;;16.40;99.90;;;;;;5053949;28;20520;-69
2022/05/15 09:04:53;;;;;;;28.38;6.25;;;16.60;99.90;;;;;;5054271;28;20099;-69
2022/05/15 09:07:34;;;;;;;28.55;6.05;;;17.10;99.90;;;;;;5054368;28;20032;-69
2022/05/15 09:10:12;;;;;;;25.80;7.22;;;17.70;99.90;;;;;;5053928;28;20046;-70
2022/05/15 09:12:42;;;;;;;25.65;5.93;;;18.20;99.90;;;;;;5053826;28;20051;-69
2022/05/15 09:15:22;;;;;;;20.58;6.82;;;18.80;99.90;;;;;;5054064;28;20082;-69
2022/05/15 09:18:03;;;;;;;26.58;6.28;;;19.20;99.90;;;;;;5053708;28;20088;-69
2022/05/15 09:20:47;;;;;;;27.10;5.75;;;19.70;99.90;;;;;;5053849;28;20017;-70
2022/05/15 09:23:26;;;;;;;28.30;6.93;;;19.70;99.90;;;;;;5052717;28;20025;-69
2022/05/15 09:25:54;;;;;;;23.15;6.13;;;19.60;99.90;;;;;;5051439;28;20048;-68
2022/05/15 09:28:20;;;;;;;29.33;6.18;;;19.60;99.90;;;;;;5052587;28;20029;-69
2022/05/15 09:30:49;;;;;;;23.40;5.75;;;19.20;99.90;;;;;;5053284;28;20040;-68
2022/05/15 09:33:30;;;;;;;21.77;5.47;;;19.40;99.90;;;;;;5053978;28;20064;-69
2022/05/15 09:36:25;;;;;;;23.25;5.93;;;19.90;99.90;;;;;;5052884;28;20074;-69
2022/05/15 09:39:20;;;;;;;25.30;6.45;;;20.10;99.90;;;;;;5053908;28;20013;-69
2022/05/15 09:44:43;;;;;;;25.63;6.97;;;20.30;99.90;;;;;;5053874;28;20079;-69
2022/05/15 09:47:30;;;;;;;23.80;5.00;;;20.20;99.90;;;;;;5053580;28;20029;-69
2022/05/15 09:49:56;;;;;;;16.75;5.47;;;20.40;99.90;;;;;;5051894;28;20480;-69
2022/05/15 09:52:41;;;;;;;19.13;4.97;;;20.30;99.90;;;;;;5044333;28;20068;-68
2022/05/15 09:55:11;;;;;;;20.75;5.57;;;20.30;99.90;;;;;;5033710;28;20389;-69
2022/05/15 09:57:51;;;;;;;19.08;5.00;;;20.20;99.90;;;;;;5033684;28;20036;-69
2022/05/15 10:00:18;;;;;;;26.35;5.80;;;20.20;99.90;;;;;;5032925;28;20393;-68
2022/05/15 10:02:47;;;;;;;25.00;5.80;;;20.40;99.90;;;;;;5045178;28;20017;-69
2022/05/15 10:05:16;;;;;;;23.80;5.60;;;20.40;99.90;;;;;;5052352;28;20486;-69
2022/05/15 10:07:49;;;;;;;26.40;5.85;;;20.20;99.90;;;;;;5053311;28;20028;-69
2022/05/15 10:10:24;;;;;;;17.02;5.20;;;20.30;99.90;;;;;;5053933;28;20453;-69
2022/05/15 10:13:22;;;;;;;17.50;4.00;;;20.60;99.90;;;;;;5052616;28;20029;-68
2022/05/15 10:15:49;;;;;;;16.73;4.63;;;20.60;99.90;;;;;;5050583;28;20079;-69
2022/05/15 10:18:25;;;;;;;18.67;5.25;;;20.50;99.90;;;;;;5053126;28;20431;-69
2022/05/15 10:20:53;;;;;;;42.13;9.65;;;19.90;99.90;;;;;;5052677;28;20047;-68
2022/05/15 10:23:41;;;;;;;27.65;7.47;;;19.00;99.90;;;;;;5052502;28;20033;-69
2022/05/15 10:26:19;;;;;;;23.10;5.65;;;18.10;99.90;;;;;;5053337;28;20017;-68
2022/05/15 10:28:52;;;;;;;17.73;5.35;;;17.80;99.90;;;;;;5053304;28;20079;-69
2022/05/15 10:31:21;;;;;;;15.15;4.82;;;17.60;99.90;;;;;;5053224;28;20079;-69
2022/05/15 10:33:49;;;;;;;19.13;4.55;;;17.70;99.90;;;;;;5051919;28;20029;-69
2022/05/15 10:36:27;;;;;;;13.50;3.80;;;18.20;99.90;;;;;;5056423;28;20115;-69
2022/05/15 10:39:13;;;;;;;15.50;4.35;;;18.90;99.90;;;;;;5056958;28;20021;-68
2022/05/15 10:42:05;;;;;;;21.80;4.88;;;19.30;99.90;;;;;;5056871;28;20017;-68
2022/05/15 10:45:08;;;;;;;18.92;4.43;;;20.00;99.90;;;;;;5057131;28;20025;-68
2022/05/15 10:48:02;;;;;;;23.52;4.53;;;21.20;99.90;;;;;;5034763;28;20078;-69
2022/05/15 10:50:55;;;;;;;18.60;4.03;;;21.80;99.90;;;;;;5054291;28;20431;-68
2022/05/15 10:59:38;;;;;;;14.13;4.00;;;22.20;99.90;;;;;;5036730;28;20397;-68
2022/05/15 11:02:32;;;;;;;17.30;4.10;;;21.90;99.90;;;;;;5036076;28;20079;-68
2022/05/15 11:05:23;;;;;;;29.50;7.20;;;21.50;99.90;;;;;;5057059;28;20036;-68
2022/05/15 11:07:54;;;;;;;19.67;6.28;;;20.80;99.90;;;;;;5056613;28;20025;-68
2022/05/15 11:10:23;;;;;;;18.98;4.47;;;20.30;99.90;;;;;;5055645;28;20052;-68
2022/05/15 11:13:25;;;;;;;24.13;4.80;;;19.90;99.90;;;;;;5056588;28;20021;-69
2022/05/15 11:16:13;;;;;;;21.23;5.75;;;19.50;99.90;;;;;;5056865;28;20473;-69
2022/05/15 11:19:00;;;;;;;18.05;4.13;;;19.30;99.90;;;;;;5056525;28;20385;-69
2022/05/15 11:21:49;;;;;;;26.52;4.80;;;19.50;99.90;;;;;;5055443;28;20025;-68
2022/05/15 11:24:41;;;;;;;19.17;4.85;;;19.40;99.90;;;;;;5055821;28;20036;-68
2022/05/15 11:27:28;;;;;;;22.25;5.35;;;19.40;99.90;;;;;;5056454;28;20025;-68
2022/05/15 11:29:58;;;;;;;20.33;4.50;;;19.30;99.90;;;;;;5055613;28;20385;-68
2022/05/15 11:32:48;;;;;;;21.55;5.25;;;19.40;99.90;;;;;;5056611;28;20104;-68
2022/05/15 11:35:17;;;;;;;20.52;4.97;;;19.40;99.90;;;;;;5041840;28;20087;-68
2022/05/15 11:38:01;;;;;;;15.82;4.80;;;20.00;99.90;;;;;;5055508;28;20071;-68
2022/05/15 11:40:35;;;;;;;14.23;3.75;;;20.20;99.90;;;;;;5055325;28;20021;-68
2022/05/15 11:43:26;;;;;;;16.38;5.07;;;20.20;99.90;;;;;;5056129;28;20531;-68
2022/05/15 11:45:58;;;;;;;18.50;4.53;;;19.60;99.90;;;;;;5017984;28;20087;-68
2022/05/15 11:48:29;;;;;;;17.88;4.30;;;19.30;99.90;;;;;;5054953;28;20500;-68
2022/05/15 11:50:59;;;;;;;13.82;3.90;;;19.30;99.90;;;;;;5041512;28;20429;-69
2022/05/15 11:53:32;;;;;;;17.60;4.22;;;19.00;99.90;;;;;;5035720;28;20382;-68
2022/05/15 11:56:14;;;;;;;19.17;4.38;;;18.60;99.90;;;;;;5036273;28;20026;-69
2022/05/15 11:58:41;;;;;;;16.77;3.75;;;18.70;99.90;;;;;;5035173;28;20116;-69
2022/05/15 12:01:13;;;;;;;17.90;4.30;;;19.50;99.90;;;;;;5073234;22;20542;-69
2022/05/15 12:03:39;;;;;;;23.60;4.60;;;20.20;99.90;;;;;;5035685;28;20025;-69
2022/05/15 12:06:17;;;;;;;15.07;4.03;;;20.60;99.90;;;;;;5035458;28;20096;-71
2022/05/15 12:08:48;;;;;;;10.98;2.92;;;19.80;99.90;;;;;;5035827;28;20022;-69
2022/05/15 12:11:39;;;;;;;12.50;3.38;;;20.10;99.90;;;;;;5034156;28;20037;-71
2022/05/15 12:14:35;;;;;;;18.50;4.30;;;20.30;99.90;;;;;;5031016;28;20038;-71
2022/05/15 12:17:03;;;;;;;20.40;3.20;;;20.40;99.90;;;;;;5018971;28;20040;-71
2022/05/15 12:19:28;;;;;;;20.58;3.70;;;20.70;99.90;;;;;;5034205;28;20041;-71
2022/05/15 12:22:07;;;;;;;13.52;3.90;;;21.30;99.90;;;;;;5035259;28;20056;-71
2022/05/15 12:24:36;;;;;;;14.85;3.38;;;21.90;99.90;;;;;;5034950;28;20473;-71
2022/05/15 12:27:16;;;;;;;13.95;3.90;;;22.20;99.90;;;;;;5035486;28;20079;-71
2022/05/15 12:30:12;;;;;;;19.85;4.30;;;22.20;99.90;;;;;;5034469;28;20035;-71
2022/05/15 12:33:05;;;;;;;10.93;3.22;;;22.60;99.90;;;;;;5035406;28;20031;-71
2022/05/15 12:35:30;;;;;;;14.77;3.15;;;22.30;99.90;;;;;;5035051;28;20062;-71
2022/05/15 12:38:06;;;;;;;16.65;3.88;;;22.00;99.90;;;;;;5034899;28;20499;-71
2022/05/15 12:40:54;;;;;;;16.85;3.05;;;21.60;99.90;;;;;;5033781;28;20029;-71
2022/05/15 12:43:48;;;;;;;16.05;3.42;;;20.90;99.90;;;;;;5034955;28;20013;-71
2022/05/15 12:46:35;;;;;;;12.38;2.90;;;20.30;99.90;;;;;;5034973;28;20521;-71
2022/05/15 12:49:03;;;;;;;16.60;3.90;;;20.00;99.90;;;;;;5034818;28;20040;-71
2022/05/15 12:51:33;;;;;;;18.17;3.60;;;19.80;99.90;;;;;;5033243;28;20036;-71
2022/05/15 12:54:00;;;;;;;15.07;3.60;;;19.80;99.90;;;;;;5034131;28;20413;-71
2022/05/15 12:56:32;;;;;;;10.85;3.25;;;19.70;99.90;;;;;;5034636;28;20053;-71
2022/05/15 12:59:06;;;;;;;8.32;3.35;;;19.90;99.90;;;;;;5034256;28;20045;-71
2022/05/15 13:01:33;;;;;;;13.52;2.88;;;20.00;99.90;;;;;;5033808;28;20041;-71
2022/05/15 13:04:02;;;;;;;9.38;2.92;;;19.70;99.90;;;;;;5034559;28;20093;-71
2022/05/15 13:06:37;;;;;;;13.85;2.70;;;19.40;99.90;;;;;;5034977;28;20040;-71
2022/05/15 13:09:07;;;;;;;14.95;3.08;;;19.30;99.90;;;;;;5033492;28;20038;-71
2022/05/15 13:11:47;;;;;;;11.25;3.30;;;19.50;99.90;;;;;;5034981;28;20129;-71
2022/05/15 13:14:29;;;;;;;17.35;3.35;;;19.50;99.90;;;;;;5034436;28;20029;-71
2022/05/15 13:16:56;;;;;;;15.43;3.88;;;19.50;99.90;;;;;;5033463;28;20043;-71